sensor_id;sensor_type;location;lat;lon;timestamp;temperature;humidity
10828;DHT22;5467;59.334;13.512;2023-01-19T00:02:23;3.20;99.90
10828;DHT22;5467;59.334;13.512;2023-01-19T00:04:50;3.30;99.90
10828;DHT22;5467;59.334;13.512;2023-01-19T00:07:18;3.20;99.90
10828;DHT22;5467;59.334;13.512;2023-01-19T00:09:45;3.30;99.90
10828;DHT22;5467;59.334;13.512;2023-01-19T00:12:12;3.30;99.90
10828;DHT22;5467;59.334;13.512;2023-01-19T00:14:40;3.40;99.90
10828;DHT22;5467;59.334;13.512;2023-01-19T00:17:07;3.30;99.90
10828;DHT22;5467;59.334;13.512;2023-01-19T00:19:34;3.40;99.90
10828;DHT22;5467;59.334;13.512;2023-01-19T00:22:01;3.30;99.90
10828;DHT22;5467;59.334;13.512;2023-01-19T00:24:32;3.30;99.90
10828;DHT22;5467;59.334;13.512;2023-01-19T00:26:59;3.30;99.90
10828;DHT22;5467;59.334;13.512;2023-01-19T00:29:28;3.30;99.90
10828;DHT22;5467;59.334;13.512;2023-01-19T00:31:59;3.20;99.90
10828;DHT22;5467;59.334;13.512;2023-01-19T00:34:26;3.20;99.90
10828;DHT22;5467;59.334;13.512;2023-01-19T00:37:01;3.10;99.90
10828;DHT22;5467;59.334;13.512;2023-01-19T00:39:28;3.10;99.90
10828;DHT22;5467;59.334;13.512;2023-01-19T00:41:57;3.00;99.90
10828;DHT22;5467;59.334;13.512;2023-01-19T00:44:42;3.00;99.90
10828;DHT22;5467;59.334;13.512;2023-01-19T00:47:09;3.00;99.90
10828;DHT22;5467;59.334;13.512;2023-01-19T00:49:36;3.00;99.90
10828;DHT22;5467;59.334;13.512;2023-01-19T00:52:03;3.10;99.90
10828;DHT22;5467;59.334;13.512;2023-01-19T00:54:30;3.10;99.90
10828;DHT22;5467;59.334;13.512;2023-01-19T00:56:59;3.20;99.90
10828;DHT22;5467;59.334;13.512;2023-01-19T00:59:26;3.10;99.90
10828;DHT22;5467;59.334;13.512;2023-01-19T01:01:53;3.10;99.90
10828;DHT22;5467;59.334;13.512;2023-01-19T01:04:20;3.20;99.90
10828;DHT22;5467;59.334;13.512;2023-01-19T01:06:47;3.20;99.90
10828;DHT22;5467;59.334;13.512;2023-01-19T01:09:14;3.20;99.90
10828;DHT22;5467;59.334;13.512;2023-01-19T01:11:42;3.20;99.90
10828;DHT22;5467;59.334;13.512;2023-01-19T01:14:11;3.30;99.90
10828;DHT22;5467;59.334;13.512;2023-01-19T01:16:39;3.30;99.90
10828;DHT22;5467;59.334;13.512;2023-01-19T01:19:06;3.30;99.90
10828;DHT22;5467;59.334;13.512;2023-01-19T01:21:33;3.30;99.90
10828;DHT22;5467;59.334;13.512;2023-01-19T01:24:01;3.30;99.90
10828;DHT22;5467;59.334;13.512;2023-01-19T01:26:29;3.20;99.90
10828;DHT22;5467;59.334;13.512;2023-01-19T01:28:56;3.20;99.90
10828;DHT22;5467;59.334;13.512;2023-01-19T01:31:24;3.20;99.90
10828;DHT22;5467;59.334;13.512;2023-01-19T01:33:51;3.20;99.90
10828;DHT22;5467;59.334;13.512;2023-01-19T01:36:18;3.20;99.90
10828;DHT22;5467;59.334;13.512;2023-01-19T01:38:46;3.30;99.90
10828;DHT22;5467;59.334;13.512;2023-01-19T01:41:13;3.30;99.90
10828;DHT22;5467;59.334;13.512;2023-01-19T01:43:43;3.30;99.90
10828;DHT22;5467;59.334;13.512;2023-01-19T01:46:11;3.20;99.90
10828;DHT22;5467;59.334;13.512;2023-01-19T01:48:43;3.10;99.90
10828;DHT22;5467;59.334;13.512;2023-01-19T01:51:13;3.10;99.90
10828;DHT22;5467;59.334;13.512;2023-01-19T01:53:58;2.90;99.90
10828;DHT22;5467;59.334;13.512;2023-01-19T01:56:31;2.90;99.90
10828;DHT22;5467;59.334;13.512;2023-01-19T01:59:03;3.00;99.90
10828;DHT22;5467;59.334;13.512;2023-01-19T02:01:31;3.00;99.90
10828;DHT22;5467;59.334;13.512;2023-01-19T02:04:17;3.00;99.90
10828;DHT22;5467;59.334;13.512;2023-01-19T02:06:46;3.00;99.90
10828;DHT22;5467;59.334;13.512;2023-01-19T02:09:32;3.00;99.90
10828;DHT22;5467;59.334;13.512;2023-01-19T02:12:18;3.00;99.90
10828;DHT22;5467;59.334;13.512;2023-01-19T02:15:03;2.90;99.90
10828;DHT22;5467;59.334;13.512;2023-01-19T02:17:30;2.80;99.90
10828;DHT22;5467;59.334;13.512;2023-01-19T02:19:59;2.80;99.90
10828;DHT22;5467;59.334;13.512;2023-01-19T02:22:30;2.80;99.90
10828;DHT22;5467;59.334;13.512;2023-01-19T02:25:02;2.70;99.90
10828;DHT22;5467;59.334;13.512;2023-01-19T02:27:30;2.80;99.90
10828;DHT22;5467;59.334;13.512;2023-01-19T02:29:58;2.80;99.90
10828;DHT22;5467;59.334;13.512;2023-01-19T02:32:28;2.80;99.90
10828;DHT22;5467;59.334;13.512;2023-01-19T02:34:55;2.90;99.90
10828;DHT22;5467;59.334;13.512;2023-01-19T02:37:23;2.80;99.90
10828;DHT22;5467;59.334;13.512;2023-01-19T02:39:52;2.80;99.90
10828;DHT22;5467;59.334;13.512;2023-01-19T02:42:25;2.80;99.90
10828;DHT22;5467;59.334;13.512;2023-01-19T02:44:55;2.80;99.90
10828;DHT22;5467;59.334;13.512;2023-01-19T02:47:22;2.80;99.90
10828;DHT22;5467;59.334;13.512;2023-01-19T02:49:54;2.80;99.90
10828;DHT22;5467;59.334;13.512;2023-01-19T02:52:21;2.80;99.90
10828;DHT22;5467;59.334;13.512;2023-01-19T02:55:00;2.80;99.90
10828;DHT22;5467;59.334;13.512;2023-01-19T02:57:49;2.80;99.90
10828;DHT22;5467;59.334;13.512;2023-01-19T03:00:30;2.80;99.90
10828;DHT22;5467;59.334;13.512;2023-01-19T03:03:11;2.80;99.90
10828;DHT22;5467;59.334;13.512;2023-01-19T03:05:51;2.80;99.90
10828;DHT22;5467;59.334;13.512;2023-01-19T03:08:29;2.80;99.90
10828;DHT22;5467;59.334;13.512;2023-01-19T03:11:01;2.80;99.90
10828;DHT22;5467;59.334;13.512;2023-01-19T03:13:38;2.80;99.90
10828;DHT22;5467;59.334;13.512;2023-01-19T03:16:13;2.80;99.90
10828;DHT22;5467;59.334;13.512;2023-01-19T03:18:44;2.80;99.90
10828;DHT22;5467;59.334;13.512;2023-01-19T03:21:12;2.80;99.90
10828;DHT22;5467;59.334;13.512;2023-01-19T03:23:41;2.80;99.90
10828;DHT22;5467;59.334;13.512;2023-01-19T03:26:13;2.70;99.90
10828;DHT22;5467;59.334;13.512;2023-01-19T03:28:43;2.70;99.90
10828;DHT22;5467;59.334;13.512;2023-01-19T03:31:14;2.60;99.90
10828;DHT22;5467;59.334;13.512;2023-01-19T03:33:45;2.60;99.90
10828;DHT22;5467;59.334;13.512;2023-01-19T03:36:17;2.60;99.90
10828;DHT22;5467;59.334;13.512;2023-01-19T03:38:46;2.60;99.90
10828;DHT22;5467;59.334;13.512;2023-01-19T03:41:16;2.60;99.90
10828;DHT22;5467;59.334;13.512;2023-01-19T03:43:48;2.60;99.90
10828;DHT22;5467;59.334;13.512;2023-01-19T03:46:17;2.60;99.90
10828;DHT22;5467;59.334;13.512;2023-01-19T03:48:44;2.50;99.90
10828;DHT22;5467;59.334;13.512;2023-01-19T03:51:12;2.50;99.90
10828;DHT22;5467;59.334;13.512;2023-01-19T03:53:40;2.40;99.90
10828;DHT22;5467;59.334;13.512;2023-01-19T03:56:16;2.40;99.90
10828;DHT22;5467;59.334;13.512;2023-01-19T03:58:43;2.40;99.90
10828;DHT22;5467;59.334;13.512;2023-01-19T04:01:13;2.40;99.90
10828;DHT22;5467;59.334;13.512;2023-01-19T04:03:40;2.40;99.90
10828;DHT22;5467;59.334;13.512;2023-01-19T04:06:08;2.30;99.90
10828;DHT22;5467;59.334;13.512;2023-01-19T04:08:35;2.40;99.90
10828;DHT22;5467;59.334;13.512;2023-01-19T04:11:02;2.40;99.90
10828;DHT22;5467;59.334;13.512;2023-01-19T04:13:29;2.40;99.90
10828;DHT22;5467;59.334;13.512;2023-01-19T04:15:58;2.40;99.90
10828;DHT22;5467;59.334;13.512;2023-01-19T04:18:28;2.40;99.90
10828;DHT22;5467;59.334;13.512;2023-01-19T04:20:59;2.40;99.90
10828;DHT22;5467;59.334;13.512;2023-01-19T04:23:26;2.30;99.90
10828;DHT22;5467;59.334;13.512;2023-01-19T04:25:56;2.30;99.90
10828;DHT22;5467;59.334;13.512;2023-01-19T04:28:23;2.30;99.90
10828;DHT22;5467;59.334;13.512;2023-01-19T04:30:51;2.40;99.90
10828;DHT22;5467;59.334;13.512;2023-01-19T04:33:18;2.40;99.90
10828;DHT22;5467;59.334;13.512;2023-01-19T04:35:47;2.30;99.90
10828;DHT22;5467;59.334;13.512;2023-01-19T04:38:14;2.30;99.90
10828;DHT22;5467;59.334;13.512;2023-01-19T04:40:41;2.30;99.90
10828;DHT22;5467;59.334;13.512;2023-01-19T04:43:08;2.30;99.90
10828;DHT22;5467;59.334;13.512;2023-01-19T04:45:36;2.30;99.90
10828;DHT22;5467;59.334;13.512;2023-01-19T04:48:03;2.40;99.90
10828;DHT22;5467;59.334;13.512;2023-01-19T04:50:31;2.40;99.90
10828;DHT22;5467;59.334;13.512;2023-01-19T04:52:59;2.50;99.90
10828;DHT22;5467;59.334;13.512;2023-01-19T04:55:27;2.50;99.90
10828;DHT22;5467;59.334;13.512;2023-01-19T04:57:54;2.50;99.90
10828;DHT22;5467;59.334;13.512;2023-01-19T05:00:21;2.50;99.90
10828;DHT22;5467;59.334;13.512;2023-01-19T05:02:49;2.50;99.90
10828;DHT22;5467;59.334;13.512;2023-01-19T05:05:16;2.50;99.90
10828;DHT22;5467;59.334;13.512;2023-01-19T05:07:43;2.60;99.90
10828;DHT22;5467;59.334;13.512;2023-01-19T05:10:12;2.50;99.90
10828;DHT22;5467;59.334;13.512;2023-01-19T05:12:40;2.50;99.90
10828;DHT22;5467;59.334;13.512;2023-01-19T05:15:08;2.50;99.90
10828;DHT22;5467;59.334;13.512;2023-01-19T05:17:36;2.50;99.90
10828;DHT22;5467;59.334;13.512;2023-01-19T05:20:04;2.40;99.90
10828;DHT22;5467;59.334;13.512;2023-01-19T05:22:31;2.30;99.90
10828;DHT22;5467;59.334;13.512;2023-01-19T05:24:59;2.30;99.90
10828;DHT22;5467;59.334;13.512;2023-01-19T05:27:27;2.20;99.90
10828;DHT22;5467;59.334;13.512;2023-01-19T05:29:54;2.30;99.90
10828;DHT22;5467;59.334;13.512;2023-01-19T05:32:22;2.30;99.90
10828;DHT22;5467;59.334;13.512;2023-01-19T05:34:49;2.30;99.90
10828;DHT22;5467;59.334;13.512;2023-01-19T05:37:16;2.30;99.90
10828;DHT22;5467;59.334;13.512;2023-01-19T05:39:43;2.40;99.90
10828;DHT22;5467;59.334;13.512;2023-01-19T05:42:10;2.40;99.90
10828;DHT22;5467;59.334;13.512;2023-01-19T05:44:39;2.40;99.90
10828;DHT22;5467;59.334;13.512;2023-01-19T05:47:06;2.50;99.90
10828;DHT22;5467;59.334;13.512;2023-01-19T05:49:36;2.50;99.90
10828;DHT22;5467;59.334;13.512;2023-01-19T05:52:03;2.50;99.90
10828;DHT22;5467;59.334;13.512;2023-01-19T05:54:33;2.60;99.90
10828;DHT22;5467;59.334;13.512;2023-01-19T05:57:00;2.60;99.90
10828;DHT22;5467;59.334;13.512;2023-01-19T05:59:29;2.60;99.90
10828;DHT22;5467;59.334;13.512;2023-01-19T06:01:57;2.60;99.90
10828;DHT22;5467;59.334;13.512;2023-01-19T06:04:25;2.60;99.90
10828;DHT22;5467;59.334;13.512;2023-01-19T06:06:52;2.60;99.90
10828;DHT22;5467;59.334;13.512;2023-01-19T06:09:19;2.60;99.90
10828;DHT22;5467;59.334;13.512;2023-01-19T06:11:47;2.60;99.90
10828;DHT22;5467;59.334;13.512;2023-01-19T06:14:14;2.60;99.90
10828;DHT22;5467;59.334;13.512;2023-01-19T06:16:44;2.60;99.90
10828;DHT22;5467;59.334;13.512;2023-01-19T06:19:13;2.50;99.90
10828;DHT22;5467;59.334;13.512;2023-01-19T06:21:40;2.50;99.90
10828;DHT22;5467;59.334;13.512;2023-01-19T06:24:14;2.30;99.90
10828;DHT22;5467;59.334;13.512;2023-01-19T06:26:41;2.40;99.90
10828;DHT22;5467;59.334;13.512;2023-01-19T06:29:09;2.30;99.90
10828;DHT22;5467;59.334;13.512;2023-01-19T06:31:36;2.30;99.90
10828;DHT22;5467;59.334;13.512;2023-01-19T06:34:04;2.30;99.90
10828;DHT22;5467;59.334;13.512;2023-01-19T06:36:32;2.40;99.90
10828;DHT22;5467;59.334;13.512;2023-01-19T06:38:59;2.40;99.90
10828;DHT22;5467;59.334;13.512;2023-01-19T06:41:28;2.50;99.90
10828;DHT22;5467;59.334;13.512;2023-01-19T06:43:55;2.50;99.90
10828;DHT22;5467;59.334;13.512;2023-01-19T06:46:22;2.50;99.90
10828;DHT22;5467;59.334;13.512;2023-01-19T06:48:50;2.50;99.90
10828;DHT22;5467;59.334;13.512;2023-01-19T06:51:19;2.50;99.90
10828;DHT22;5467;59.334;13.512;2023-01-19T06:53:49;2.50;99.90
10828;DHT22;5467;59.334;13.512;2023-01-19T06:56:16;2.50;99.90
10828;DHT22;5467;59.334;13.512;2023-01-19T06:58:45;2.50;99.90
10828;DHT22;5467;59.334;13.512;2023-01-19T07:01:12;2.50;99.90
10828;DHT22;5467;59.334;13.512;2023-01-19T07:03:39;2.50;99.90
10828;DHT22;5467;59.334;13.512;2023-01-19T07:06:06;2.50;99.90
10828;DHT22;5467;59.334;13.512;2023-01-19T07:08:34;2.50;99.90
10828;DHT22;5467;59.334;13.512;2023-01-19T07:11:05;2.50;99.90
10828;DHT22;5467;59.334;13.512;2023-01-19T07:13:34;2.60;99.90
10828;DHT22;5467;59.334;13.512;2023-01-19T07:16:03;2.60;99.90
10828;DHT22;5467;59.334;13.512;2023-01-19T07:18:31;2.60;99.90
10828;DHT22;5467;59.334;13.512;2023-01-19T07:20:58;2.50;99.90
10828;DHT22;5467;59.334;13.512;2023-01-19T07:23:25;2.50;99.90
10828;DHT22;5467;59.334;13.512;2023-01-19T07:25:55;2.50;99.90
10828;DHT22;5467;59.334;13.512;2023-01-19T07:28:24;2.50;99.90
10828;DHT22;5467;59.334;13.512;2023-01-19T07:30:51;2.50;99.90
10828;DHT22;5467;59.334;13.512;2023-01-19T07:33:18;2.50;99.90
10828;DHT22;5467;59.334;13.512;2023-01-19T07:35:46;2.40;99.90
10828;DHT22;5467;59.334;13.512;2023-01-19T07:38:14;2.50;99.90
10828;DHT22;5467;59.334;13.512;2023-01-19T07:40:41;2.50;99.90
10828;DHT22;5467;59.334;13.512;2023-01-19T07:43:08;2.50;99.90
10828;DHT22;5467;59.334;13.512;2023-01-19T07:45:37;2.60;99.90
10828;DHT22;5467;59.334;13.512;2023-01-19T07:48:04;2.60;99.90
10828;DHT22;5467;59.334;13.512;2023-01-19T07:50:31;2.60;99.90
10828;DHT22;5467;59.334;13.512;2023-01-19T07:53:04;2.40;99.90
10828;DHT22;5467;59.334;13.512;2023-01-19T07:55:31;2.60;99.90
10828;DHT22;5467;59.334;13.512;2023-01-19T07:57:58;2.50;99.90
10828;DHT22;5467;59.334;13.512;2023-01-19T08:00:25;2.40;99.90
10828;DHT22;5467;59.334;13.512;2023-01-19T08:02:58;2.40;99.90
10828;DHT22;5467;59.334;13.512;2023-01-19T08:05:25;2.40;99.90
10828;DHT22;5467;59.334;13.512;2023-01-19T08:07:53;2.40;99.90
10828;DHT22;5467;59.334;13.512;2023-01-19T08:10:23;2.40;99.90
10828;DHT22;5467;59.334;13.512;2023-01-19T08:12:51;2.30;99.90
10828;DHT22;5467;59.334;13.512;2023-01-19T08:15:20;2.40;99.90
10828;DHT22;5467;59.334;13.512;2023-01-19T08:17:56;2.40;99.90
10828;DHT22;5467;59.334;13.512;2023-01-19T08:20:23;2.50;99.90
10828;DHT22;5467;59.334;13.512;2023-01-19T08:22:51;2.40;99.90
10828;DHT22;5467;59.334;13.512;2023-01-19T08:25:25;2.40;99.90
10828;DHT22;5467;59.334;13.512;2023-01-19T08:27:56;2.50;99.90
10828;DHT22;5467;59.334;13.512;2023-01-19T08:30:23;2.40;99.90
10828;DHT22;5467;59.334;13.512;2023-01-19T08:32:52;2.50;99.90
10828;DHT22;5467;59.334;13.512;2023-01-19T08:35:24;2.40;99.90
10828;DHT22;5467;59.334;13.512;2023-01-19T08:37:51;2.40;99.90
10828;DHT22;5467;59.334;13.512;2023-01-19T08:40:18;2.30;99.90
10828;DHT22;5467;59.334;13.512;2023-01-19T08:42:45;2.40;99.90
10828;DHT22;5467;59.334;13.512;2023-01-19T08:45:12;2.30;99.90
10828;DHT22;5467;59.334;13.512;2023-01-19T08:47:39;2.40;99.90
10828;DHT22;5467;59.334;13.512;2023-01-19T08:50:08;2.40;99.90
10828;DHT22;5467;59.334;13.512;2023-01-19T08:52:36;2.50;99.90
10828;DHT22;5467;59.334;13.512;2023-01-19T08:55:05;2.50;99.90
10828;DHT22;5467;59.334;13.512;2023-01-19T08:57:32;2.50;99.90
10828;DHT22;5467;59.334;13.512;2023-01-19T08:59:59;2.50;99.90
10828;DHT22;5467;59.334;13.512;2023-01-19T09:02:26;2.60;99.90
10828;DHT22;5467;59.334;13.512;2023-01-19T09:04:53;2.50;99.90
10828;DHT22;5467;59.334;13.512;2023-01-19T09:07:20;2.50;99.90
10828;DHT22;5467;59.334;13.512;2023-01-19T09:09:49;2.50;99.90
10828;DHT22;5467;59.334;13.512;2023-01-19T09:12:16;2.60;99.90
10828;DHT22;5467;59.334;13.512;2023-01-19T09:14:43;2.70;99.90
10828;DHT22;5467;59.334;13.512;2023-01-19T09:17:10;2.70;99.90
10828;DHT22;5467;59.334;13.512;2023-01-19T09:19:39;2.70;99.90
10828;DHT22;5467;59.334;13.512;2023-01-19T09:22:07;2.70;99.90
10828;DHT22;5467;59.334;13.512;2023-01-19T09:24:34;2.70;99.90
10828;DHT22;5467;59.334;13.512;2023-01-19T09:27:02;2.70;99.90
10828;DHT22;5467;59.334;13.512;2023-01-19T09:29:29;2.70;99.90
10828;DHT22;5467;59.334;13.512;2023-01-19T09:31:57;2.70;99.90
10828;DHT22;5467;59.334;13.512;2023-01-19T09:34:24;2.70;99.90
10828;DHT22;5467;59.334;13.512;2023-01-19T09:36:51;2.70;99.90
10828;DHT22;5467;59.334;13.512;2023-01-19T09:39:18;2.70;99.90
10828;DHT22;5467;59.334;13.512;2023-01-19T09:41:48;2.60;99.90
10828;DHT22;5467;59.334;13.512;2023-01-19T09:44:23;2.60;99.90
10828;DHT22;5467;59.334;13.512;2023-01-19T09:46:53;2.60;99.90
10828;DHT22;5467;59.334;13.512;2023-01-19T09:49:24;2.50;99.90
10828;DHT22;5467;59.334;13.512;2023-01-19T09:51:52;2.50;99.90
10828;DHT22;5467;59.334;13.512;2023-01-19T09:54:22;2.50;99.90
10828;DHT22;5467;59.334;13.512;2023-01-19T09:56:52;2.50;99.90
10828;DHT22;5467;59.334;13.512;2023-01-19T09:59:22;2.60;99.90
10828;DHT22;5467;59.334;13.512;2023-01-19T10:02:17;2.70;99.90
10828;DHT22;5467;59.334;13.512;2023-01-19T10:04:53;2.60;99.90
10828;DHT22;5467;59.334;13.512;2023-01-19T10:07:34;2.60;99.90
10828;DHT22;5467;59.334;13.512;2023-01-19T10:10:15;2.60;99.90
10828;DHT22;5467;59.334;13.512;2023-01-19T10:15:39;2.60;99.90
10828;DHT22;5467;59.334;13.512;2023-01-19T10:18:17;2.60;99.90
10828;DHT22;5467;59.334;13.512;2023-01-19T10:20:49;2.70;99.90
10828;DHT22;5467;59.334;13.512;2023-01-19T10:23:27;2.80;99.90
10828;DHT22;5467;59.334;13.512;2023-01-19T10:25:55;2.80;99.90
10828;DHT22;5467;59.334;13.512;2023-01-19T10:28:24;2.80;99.90
10828;DHT22;5467;59.334;13.512;2023-01-19T10:30:54;2.60;99.90
10828;DHT22;5467;59.334;13.512;2023-01-19T10:33:21;2.60;99.90
10828;DHT22;5467;59.334;13.512;2023-01-19T10:35:48;2.70;99.90
10828;DHT22;5467;59.334;13.512;2023-01-19T10:38:16;2.70;99.90
10828;DHT22;5467;59.334;13.512;2023-01-19T10:40:53;2.80;99.90
10828;DHT22;5467;59.334;13.512;2023-01-19T10:43:36;2.70;99.90
10828;DHT22;5467;59.334;13.512;2023-01-19T10:46:07;2.70;99.90
10828;DHT22;5467;59.334;13.512;2023-01-19T10:48:42;2.60;99.90
10828;DHT22;5467;59.334;13.512;2023-01-19T10:51:10;2.60;99.90
10828;DHT22;5467;59.334;13.512;2023-01-19T10:53:37;2.70;99.90
10828;DHT22;5467;59.334;13.512;2023-01-19T10:56:14;2.70;99.90
10828;DHT22;5467;59.334;13.512;2023-01-19T10:58:42;2.70;99.90
10828;DHT22;5467;59.334;13.512;2023-01-19T11:01:15;2.70;99.90
10828;DHT22;5467;59.334;13.512;2023-01-19T11:03:43;2.60;99.90
10828;DHT22;5467;59.334;13.512;2023-01-19T11:06:22;2.60;99.90
10828;DHT22;5467;59.334;13.512;2023-01-19T11:08:50;2.60;99.90
10828;DHT22;5467;59.334;13.512;2023-01-19T11:11:18;2.60;99.90
10828;DHT22;5467;59.334;13.512;2023-01-19T11:14:04;2.70;99.90
10828;DHT22;5467;59.334;13.512;2023-01-19T11:16:34;2.60;99.90
10828;DHT22;5467;59.334;13.512;2023-01-19T11:19:04;2.60;99.90
10828;DHT22;5467;59.334;13.512;2023-01-19T11:21:40;2.70;99.90
10828;DHT22;5467;59.334;13.512;2023-01-19T11:24:09;2.70;99.90
10828;DHT22;5467;59.334;13.512;2023-01-19T11:26:42;2.80;99.90
10828;DHT22;5467;59.334;13.512;2023-01-19T11:29:16;2.80;99.90
10828;DHT22;5467;59.334;13.512;2023-01-19T11:31:46;2.70;99.90
10828;DHT22;5467;59.334;13.512;2023-01-19T11:34:27;2.60;99.90
10828;DHT22;5467;59.334;13.512;2023-01-19T11:36:58;2.60;99.90
10828;DHT22;5467;59.334;13.512;2023-01-19T11:39:27;2.60;99.90
10828;DHT22;5467;59.334;13.512;2023-01-19T11:41:57;2.60;99.90
10828;DHT22;5467;59.334;13.512;2023-01-19T11:44:28;2.50;99.90
10828;DHT22;5467;59.334;13.512;2023-01-19T11:46:59;2.60;99.90
10828;DHT22;5467;59.334;13.512;2023-01-19T11:49:35;2.50;99.90
10828;DHT22;5467;59.334;13.512;2023-01-19T11:52:08;2.50;99.90
10828;DHT22;5467;59.334;13.512;2023-01-19T11:54:44;2.50;99.90
10828;DHT22;5467;59.334;13.512;2023-01-19T11:57:15;2.50;99.90
10828;DHT22;5467;59.334;13.512;2023-01-19T11:59:43;2.50;99.90
10828;DHT22;5467;59.334;13.512;2023-01-19T12:02:22;2.50;99.90
10828;DHT22;5467;59.334;13.512;2023-01-19T12:04:55;2.50;99.90
10828;DHT22;5467;59.334;13.512;2023-01-19T12:07:28;2.50;99.90
10828;DHT22;5467;59.334;13.512;2023-01-19T12:10:01;2.50;99.90
10828;DHT22;5467;59.334;13.512;2023-01-19T12:12:33;2.60;99.90
10828;DHT22;5467;59.334;13.512;2023-01-19T12:15:09;2.60;99.90
10828;DHT22;5467;59.334;13.512;2023-01-19T12:17:46;2.50;99.90
10828;DHT22;5467;59.334;13.512;2023-01-19T12:20:23;2.60;99.90
10828;DHT22;5467;59.334;13.512;2023-01-19T12:22:58;2.60;99.90
10828;DHT22;5467;59.334;13.512;2023-01-19T12:25:37;2.40;99.90
10828;DHT22;5467;59.334;13.512;2023-01-19T12:28:09;2.30;99.90
10828;DHT22;5467;59.334;13.512;2023-01-19T12:30:39;2.40;99.90
10828;DHT22;5467;59.334;13.512;2023-01-19T12:33:34;2.40;99.90
10828;DHT22;5467;59.334;13.512;2023-01-19T12:36:04;2.40;99.90
10828;DHT22;5467;59.334;13.512;2023-01-19T12:38:42;2.20;99.90
10828;DHT22;5467;59.334;13.512;2023-01-19T12:41:25;2.30;99.90
10828;DHT22;5467;59.334;13.512;2023-01-19T12:46:59;2.50;99.90
10828;DHT22;5467;59.334;13.512;2023-01-19T12:49:34;2.40;99.90
10828;DHT22;5467;59.334;13.512;2023-01-19T12:52:25;2.40;99.90
10828;DHT22;5467;59.334;13.512;2023-01-19T12:54:59;2.30;99.90
10828;DHT22;5467;59.334;13.512;2023-01-19T12:57:30;2.30;99.90
10828;DHT22;5467;59.334;13.512;2023-01-19T13:00:00;2.30;99.90
10828;DHT22;5467;59.334;13.512;2023-01-19T13:02:41;2.30;99.90
10828;DHT22;5467;59.334;13.512;2023-01-19T13:08:21;2.20;99.90
10828;DHT22;5467;59.334;13.512;2023-01-19T13:11:14;2.20;99.90
10828;DHT22;5467;59.334;13.512;2023-01-19T13:13:43;2.30;99.90
10828;DHT22;5467;59.334;13.512;2023-01-19T13:19:34;2.20;99.90
10828;DHT22;5467;59.334;13.512;2023-01-19T13:25:06;2.10;99.90
10828;DHT22;5467;59.334;13.512;2023-01-19T13:27:34;2.10;99.90
10828;DHT22;5467;59.334;13.512;2023-01-19T13:30:10;2.00;99.90
10828;DHT22;5467;59.334;13.512;2023-01-19T13:32:39;1.90;99.90
10828;DHT22;5467;59.334;13.512;2023-01-19T13:35:12;1.90;99.90
10828;DHT22;5467;59.334;13.512;2023-01-19T13:37:42;1.90;99.90
10828;DHT22;5467;59.334;13.512;2023-01-19T13:40:17;1.80;99.90
10828;DHT22;5467;59.334;13.512;2023-01-19T13:42:46;2.00;99.90
10828;DHT22;5467;59.334;13.512;2023-01-19T13:45:20;2.00;99.90
10828;DHT22;5467;59.334;13.512;2023-01-19T13:47:50;2.00;99.90
10828;DHT22;5467;59.334;13.512;2023-01-19T13:50:19;2.00;99.90
10828;DHT22;5467;59.334;13.512;2023-01-19T13:52:46;1.90;99.90
10828;DHT22;5467;59.334;13.512;2023-01-19T13:55:17;1.90;99.90
10828;DHT22;5467;59.334;13.512;2023-01-19T13:57:46;1.90;99.90
10828;DHT22;5467;59.334;13.512;2023-01-19T14:00:18;2.00;99.90
10828;DHT22;5467;59.334;13.512;2023-01-19T14:02:58;1.90;99.90
10828;DHT22;5467;59.334;13.512;2023-01-19T14:05:28;2.00;99.90
10828;DHT22;5467;59.334;13.512;2023-01-19T14:08:11;1.90;99.90
10828;DHT22;5467;59.334;13.512;2023-01-19T14:10:42;2.00;99.90
10828;DHT22;5467;59.334;13.512;2023-01-19T14:13:15;2.00;99.90
10828;DHT22;5467;59.334;13.512;2023-01-19T14:15:44;1.90;99.90
10828;DHT22;5467;59.334;13.512;2023-01-19T14:18:33;1.90;99.90
10828;DHT22;5467;59.334;13.512;2023-01-19T14:21:03;2.00;99.90
10828;DHT22;5467;59.334;13.512;2023-01-19T14:23:41;1.80;99.90
10828;DHT22;5467;59.334;13.512;2023-01-19T14:26:41;1.80;99.90
10828;DHT22;5467;59.334;13.512;2023-01-19T14:29:22;1.80;99.90
10828;DHT22;5467;59.334;13.512;2023-01-19T14:31:51;1.90;99.90
10828;DHT22;5467;59.334;13.512;2023-01-19T14:34:31;1.80;99.90
10828;DHT22;5467;59.334;13.512;2023-01-19T14:36:58;1.90;99.90
10828;DHT22;5467;59.334;13.512;2023-01-19T14:39:27;1.90;99.90
10828;DHT22;5467;59.334;13.512;2023-01-19T14:41:59;1.90;99.90
10828;DHT22;5467;59.334;13.512;2023-01-19T14:44:30;2.00;99.90
10828;DHT22;5467;59.334;13.512;2023-01-19T14:46:58;1.90;99.90
10828;DHT22;5467;59.334;13.512;2023-01-19T14:49:30;1.70;99.90
10828;DHT22;5467;59.334;13.512;2023-01-19T14:51:59;1.60;99.90
10828;DHT22;5467;59.334;13.512;2023-01-19T14:54:33;1.60;99.90
10828;DHT22;5467;59.334;13.512;2023-01-19T14:57:02;1.60;99.90
10828;DHT22;5467;59.334;13.512;2023-01-19T14:59:30;1.70;99.90
10828;DHT22;5467;59.334;13.512;2023-01-19T15:01:57;1.50;99.90
10828;DHT22;5467;59.334;13.512;2023-01-19T15:04:25;1.40;99.90
10828;DHT22;5467;59.334;13.512;2023-01-19T15:06:54;1.50;99.90
10828;DHT22;5467;59.334;13.512;2023-01-19T15:09:21;1.50;99.90
10828;DHT22;5467;59.334;13.512;2023-01-19T15:11:49;1.60;99.90
10828;DHT22;5467;59.334;13.512;2023-01-19T15:14:19;1.50;99.90
10828;DHT22;5467;59.334;13.512;2023-01-19T15:16:47;1.60;99.90
10828;DHT22;5467;59.334;13.512;2023-01-19T15:19:15;1.50;99.90
10828;DHT22;5467;59.334;13.512;2023-01-19T15:21:43;1.60;99.90
10828;DHT22;5467;59.334;13.512;2023-01-19T15:24:11;1.40;99.90
10828;DHT22;5467;59.334;13.512;2023-01-19T15:26:40;1.40;99.90
10828;DHT22;5467;59.334;13.512;2023-01-19T15:29:20;1.30;99.90
10828;DHT22;5467;59.334;13.512;2023-01-19T15:31:48;1.30;99.90
10828;DHT22;5467;59.334;13.512;2023-01-19T15:34:16;1.40;99.90
10828;DHT22;5467;59.334;13.512;2023-01-19T15:36:43;1.50;99.90
10828;DHT22;5467;59.334;13.512;2023-01-19T15:39:10;1.50;99.90
10828;DHT22;5467;59.334;13.512;2023-01-19T15:41:38;1.50;99.90
10828;DHT22;5467;59.334;13.512;2023-01-19T15:44:05;1.50;99.90
10828;DHT22;5467;59.334;13.512;2023-01-19T15:46:36;1.50;99.90
10828;DHT22;5467;59.334;13.512;2023-01-19T15:49:03;1.50;99.90
10828;DHT22;5467;59.334;13.512;2023-01-19T15:51:31;1.70;99.90
10828;DHT22;5467;59.334;13.512;2023-01-19T15:53:58;1.70;99.90
10828;DHT22;5467;59.334;13.512;2023-01-19T15:56:27;1.60;99.90
10828;DHT22;5467;59.334;13.512;2023-01-19T15:58:55;1.50;99.90
10828;DHT22;5467;59.334;13.512;2023-01-19T16:01:24;1.40;99.90
10828;DHT22;5467;59.334;13.512;2023-01-19T16:03:59;1.30;99.90
10828;DHT22;5467;59.334;13.512;2023-01-19T16:06:27;1.30;99.90
10828;DHT22;5467;59.334;13.512;2023-01-19T16:08:55;1.30;99.90
10828;DHT22;5467;59.334;13.512;2023-01-19T16:11:26;1.40;99.90
10828;DHT22;5467;59.334;13.512;2023-01-19T16:13:53;1.40;99.90
10828;DHT22;5467;59.334;13.512;2023-01-19T16:16:22;1.30;99.90
10828;DHT22;5467;59.334;13.512;2023-01-19T16:18:50;1.40;99.90
10828;DHT22;5467;59.334;13.512;2023-01-19T16:21:19;1.40;99.90